sensor_id;sensor_type;location;lat;lon;timestamp;temperature;humidity
33837;DHT22;20140;49.356;8.812;2022-12-07T00:00:41;3.30;99.90
33837;DHT22;20140;49.356;8.812;2022-12-07T00:03:07;3.30;99.90
33837;DHT22;20140;49.356;8.812;2022-12-07T00:05:32;3.20;99.90
33837;DHT22;20140;49.356;8.812;2022-12-07T00:07:57;3.20;99.90
33837;DHT22;20140;49.356;8.812;2022-12-07T00:10:23;3.10;99.90
33837;DHT22;20140;49.356;8.812;2022-12-07T00:12:48;3.10;99.90
33837;DHT22;20140;49.356;8.812;2022-12-07T00:15:15;3.00;99.90
33837;DHT22;20140;49.356;8.812;2022-12-07T00:17:42;3.00;99.90
33837;DHT22;20140;49.356;8.812;2022-12-07T00:20:08;3.00;99.90
33837;DHT22;20140;49.356;8.812;2022-12-07T00:22:34;3.00;99.90
33837;DHT22;20140;49.356;8.812;2022-12-07T00:24:59;3.00;99.90
33837;DHT22;20140;49.356;8.812;2022-12-07T00:27:25;3.00;99.90
33837;DHT22;20140;49.356;8.812;2022-12-07T00:29:52;3.00;99.90
33837;DHT22;20140;49.356;8.812;2022-12-07T00:32:17;3.00;99.90
33837;DHT22;20140;49.356;8.812;2022-12-07T00:34:43;3.00;99.90
33837;DHT22;20140;49.356;8.812;2022-12-07T00:37:08;3.00;99.90
33837;DHT22;20140;49.356;8.812;2022-12-07T00:39:34;2.90;99.90
33837;DHT22;20140;49.356;8.812;2022-12-07T00:41:59;2.80;99.90
33837;DHT22;20140;49.356;8.812;2022-12-07T00:44:25;2.80;99.90
33837;DHT22;20140;49.356;8.812;2022-12-07T00:46:50;2.90;99.90
33837;DHT22;20140;49.356;8.812;2022-12-07T00:49:16;2.80;99.90
33837;DHT22;20140;49.356;8.812;2022-12-07T00:51:41;2.70;99.90
33837;DHT22;20140;49.356;8.812;2022-12-07T00:54:07;2.80;99.90
33837;DHT22;20140;49.356;8.812;2022-12-07T00:56:33;2.80;99.90
33837;DHT22;20140;49.356;8.812;2022-12-07T00:59:01;2.80;99.90
33837;DHT22;20140;49.356;8.812;2022-12-07T01:01:30;2.90;99.90
33837;DHT22;20140;49.356;8.812;2022-12-07T01:03:56;2.90;99.90
33837;DHT22;20140;49.356;8.812;2022-12-07T01:06:23;2.90;99.90
33837;DHT22;20140;49.356;8.812;2022-12-07T01:08:49;2.90;99.90
33837;DHT22;20140;49.356;8.812;2022-12-07T01:11:16;2.90;99.90
33837;DHT22;20140;49.356;8.812;2022-12-07T01:13:42;3.00;99.90
33837;DHT22;20140;49.356;8.812;2022-12-07T01:16:11;2.90;99.90
33837;DHT22;20140;49.356;8.812;2022-12-07T01:18:37;3.00;99.90
33837;DHT22;20140;49.356;8.812;2022-12-07T01:21:12;3.00;99.90
33837;DHT22;20140;49.356;8.812;2022-12-07T01:23:38;2.90;99.90
33837;DHT22;20140;49.356;8.812;2022-12-07T01:26:06;2.80;99.90
33837;DHT22;20140;49.356;8.812;2022-12-07T01:28:32;2.90;99.90
33837;DHT22;20140;49.356;8.812;2022-12-07T01:31:06;2.90;99.90
33837;DHT22;20140;49.356;8.812;2022-12-07T01:33:34;2.90;99.90
33837;DHT22;20140;49.356;8.812;2022-12-07T01:36:21;3.00;99.90
33837;DHT22;20140;49.356;8.812;2022-12-07T01:38:48;3.00;99.90
33837;DHT22;20140;49.356;8.812;2022-12-07T01:41:16;2.90;99.90
33837;DHT22;20140;49.356;8.812;2022-12-07T01:46:32;3.00;99.90
33837;DHT22;20140;49.356;8.812;2022-12-07T01:48:58;3.00;99.90
33837;DHT22;20140;49.356;8.812;2022-12-07T01:51:24;3.00;99.90
33837;DHT22;20140;49.356;8.812;2022-12-07T01:53:49;3.00;99.90
33837;DHT22;20140;49.356;8.812;2022-12-07T01:56:19;3.00;99.90
33837;DHT22;20140;49.356;8.812;2022-12-07T01:58:46;2.90;99.90
33837;DHT22;20140;49.356;8.812;2022-12-07T02:01:13;2.90;99.90
33837;DHT22;20140;49.356;8.812;2022-12-07T02:03:42;2.90;99.90
33837;DHT22;20140;49.356;8.812;2022-12-07T02:06:10;3.00;99.90
33837;DHT22;20140;49.356;8.812;2022-12-07T02:08:37;3.00;99.90
33837;DHT22;20140;49.356;8.812;2022-12-07T02:11:04;2.90;99.90
33837;DHT22;20140;49.356;8.812;2022-12-07T02:13:33;3.00;99.90
33837;DHT22;20140;49.356;8.812;2022-12-07T02:19:02;2.90;99.90
33837;DHT22;20140;49.356;8.812;2022-12-07T02:30:15;2.90;99.90
33837;DHT22;20140;49.356;8.812;2022-12-07T02:35:20;2.90;99.90
33837;DHT22;20140;49.356;8.812;2022-12-07T02:40:31;3.00;99.90
33837;DHT22;20140;49.356;8.812;2022-12-07T02:43:04;3.10;99.90
33837;DHT22;20140;49.356;8.812;2022-12-07T02:45:31;3.00;99.90
33837;DHT22;20140;49.356;8.812;2022-12-07T02:47:58;2.90;99.90
33837;DHT22;20140;49.356;8.812;2022-12-07T02:50:25;2.90;99.90
33837;DHT22;20140;49.356;8.812;2022-12-07T02:52:51;2.80;99.90
33837;DHT22;20140;49.356;8.812;2022-12-07T02:55:20;2.80;99.90
33837;DHT22;20140;49.356;8.812;2022-12-07T02:58:08;2.80;99.90
33837;DHT22;20140;49.356;8.812;2022-12-07T03:00:50;2.80;99.90
33837;DHT22;20140;49.356;8.812;2022-12-07T03:03:17;2.80;99.90
33837;DHT22;20140;49.356;8.812;2022-12-07T03:06:04;2.70;99.90
33837;DHT22;20140;49.356;8.812;2022-12-07T03:08:59;2.70;99.90
33837;DHT22;20140;49.356;8.812;2022-12-07T03:11:36;2.70;99.90
33837;DHT22;20140;49.356;8.812;2022-12-07T03:14:23;2.70;99.90
33837;DHT22;20140;49.356;8.812;2022-12-07T03:16:57;2.80;99.90
33837;DHT22;20140;49.356;8.812;2022-12-07T03:19:25;2.80;99.90
33837;DHT22;20140;49.356;8.812;2022-12-07T03:22:00;2.80;99.90
33837;DHT22;20140;49.356;8.812;2022-12-07T03:24:33;2.90;99.90
33837;DHT22;20140;49.356;8.812;2022-12-07T03:27:26;3.00;99.90
33837;DHT22;20140;49.356;8.812;2022-12-07T03:30:20;3.00;99.90
33837;DHT22;20140;49.356;8.812;2022-12-07T03:32:50;3.00;99.90
33837;DHT22;20140;49.356;8.812;2022-12-07T03:35:39;3.00;99.90
33837;DHT22;20140;49.356;8.812;2022-12-07T03:38:17;3.00;99.90
33837;DHT22;20140;49.356;8.812;2022-12-07T03:41:01;3.00;99.90
33837;DHT22;20140;49.356;8.812;2022-12-07T03:43:30;3.00;99.90
33837;DHT22;20140;49.356;8.812;2022-12-07T03:46:36;3.00;99.90
33837;DHT22;20140;49.356;8.812;2022-12-07T03:49:16;3.00;99.90
33837;DHT22;20140;49.356;8.812;2022-12-07T03:52:03;3.00;99.90
33837;DHT22;20140;49.356;8.812;2022-12-07T03:54:38;2.90;99.90
33837;DHT22;20140;49.356;8.812;2022-12-07T03:57:06;2.90;99.90
33837;DHT22;20140;49.356;8.812;2022-12-07T03:59:33;2.90;99.90
33837;DHT22;20140;49.356;8.812;2022-12-07T04:02:03;2.90;99.90
33837;DHT22;20140;49.356;8.812;2022-12-07T04:04:29;3.00;99.90
33837;DHT22;20140;49.356;8.812;2022-12-07T04:06:54;3.00;99.90
33837;DHT22;20140;49.356;8.812;2022-12-07T04:09:21;2.90;99.90
33837;DHT22;20140;49.356;8.812;2022-12-07T04:11:47;3.00;99.90
33837;DHT22;20140;49.356;8.812;2022-12-07T04:14:13;3.10;99.90
33837;DHT22;20140;49.356;8.812;2022-12-07T04:17:05;3.30;99.90
33837;DHT22;20140;49.356;8.812;2022-12-07T04:19:33;3.40;99.90
33837;DHT22;20140;49.356;8.812;2022-12-07T04:22:00;3.50;99.90
33837;DHT22;20140;49.356;8.812;2022-12-07T04:24:27;3.50;99.90
33837;DHT22;20140;49.356;8.812;2022-12-07T04:26:53;3.50;99.90
33837;DHT22;20140;49.356;8.812;2022-12-07T04:29:19;3.40;99.90
33837;DHT22;20140;49.356;8.812;2022-12-07T04:31:45;3.40;99.90
33837;DHT22;20140;49.356;8.812;2022-12-07T04:34:11;3.40;99.90
33837;DHT22;20140;49.356;8.812;2022-12-07T04:36:38;3.50;99.90
33837;DHT22;20140;49.356;8.812;2022-12-07T04:39:05;3.50;99.90
33837;DHT22;20140;49.356;8.812;2022-12-07T04:41:30;3.50;99.90
33837;DHT22;20140;49.356;8.812;2022-12-07T04:44:01;3.60;99.90
33837;DHT22;20140;49.356;8.812;2022-12-07T04:46:30;3.60;99.90
33837;DHT22;20140;49.356;8.812;2022-12-07T04:48:55;3.50;99.90
33837;DHT22;20140;49.356;8.812;2022-12-07T04:51:24;3.50;99.90
33837;DHT22;20140;49.356;8.812;2022-12-07T04:53:51;3.60;99.90
33837;DHT22;20140;49.356;8.812;2022-12-07T04:56:17;3.60;99.90
33837;DHT22;20140;49.356;8.812;2022-12-07T04:58:44;3.50;99.90
33837;DHT22;20140;49.356;8.812;2022-12-07T05:01:10;3.50;99.90
33837;DHT22;20140;49.356;8.812;2022-12-07T05:03:36;3.50;99.90
33837;DHT22;20140;49.356;8.812;2022-12-07T05:06:03;3.50;99.90
33837;DHT22;20140;49.356;8.812;2022-12-07T05:08:29;3.50;99.90
33837;DHT22;20140;49.356;8.812;2022-12-07T05:10:54;3.50;99.90
33837;DHT22;20140;49.356;8.812;2022-12-07T05:13:20;3.40;99.90
33837;DHT22;20140;49.356;8.812;2022-12-07T05:15:47;3.40;99.90
33837;DHT22;20140;49.356;8.812;2022-12-07T05:18:13;3.40;99.90
33837;DHT22;20140;49.356;8.812;2022-12-07T05:20:40;3.40;99.90
33837;DHT22;20140;49.356;8.812;2022-12-07T05:23:06;3.40;99.90
33837;DHT22;20140;49.356;8.812;2022-12-07T05:25:31;3.40;99.90
33837;DHT22;20140;49.356;8.812;2022-12-07T05:27:57;3.30;99.90
33837;DHT22;20140;49.356;8.812;2022-12-07T05:30:24;3.30;99.90
33837;DHT22;20140;49.356;8.812;2022-12-07T05:32:49;3.40;99.90
33837;DHT22;20140;49.356;8.812;2022-12-07T05:35:15;3.50;99.90
33837;DHT22;20140;49.356;8.812;2022-12-07T05:37:41;3.50;99.90
33837;DHT22;20140;49.356;8.812;2022-12-07T05:40:07;3.50;99.90
33837;DHT22;20140;49.356;8.812;2022-12-07T05:42:32;3.40;99.90
33837;DHT22;20140;49.356;8.812;2022-12-07T05:44:58;3.50;99.90
33837;DHT22;20140;49.356;8.812;2022-12-07T05:47:23;3.60;99.90
33837;DHT22;20140;49.356;8.812;2022-12-07T05:49:49;3.60;99.90
33837;DHT22;20140;49.356;8.812;2022-12-07T05:52:15;3.70;99.90
33837;DHT22;20140;49.356;8.812;2022-12-07T05:54:40;3.60;99.90
33837;DHT22;20140;49.356;8.812;2022-12-07T05:57:06;3.70;99.90
33837;DHT22;20140;49.356;8.812;2022-12-07T05:59:32;3.70;99.90
33837;DHT22;20140;49.356;8.812;2022-12-07T06:02:06;3.60;99.90
33837;DHT22;20140;49.356;8.812;2022-12-07T06:04:34;3.70;99.90
33837;DHT22;20140;49.356;8.812;2022-12-07T06:07:00;3.70;99.90
33837;DHT22;20140;49.356;8.812;2022-12-07T06:09:27;3.80;99.90
33837;DHT22;20140;49.356;8.812;2022-12-07T06:11:53;3.70;99.90
33837;DHT22;20140;49.356;8.812;2022-12-07T06:14:38;3.80;99.90
33837;DHT22;20140;49.356;8.812;2022-12-07T06:17:03;3.80;99.90
33837;DHT22;20140;49.356;8.812;2022-12-07T06:19:29;3.80;99.90
33837;DHT22;20140;49.356;8.812;2022-12-07T06:21:55;3.80;99.90
33837;DHT22;20140;49.356;8.812;2022-12-07T06:24:21;3.80;99.90
33837;DHT22;20140;49.356;8.812;2022-12-07T06:26:47;3.70;99.90
33837;DHT22;20140;49.356;8.812;2022-12-07T06:29:13;3.60;99.90
33837;DHT22;20140;49.356;8.812;2022-12-07T06:31:39;3.60;99.90
33837;DHT22;20140;49.356;8.812;2022-12-07T06:34:08;3.70;99.90
33837;DHT22;20140;49.356;8.812;2022-12-07T06:36:34;3.70;99.90
33837;DHT22;20140;49.356;8.812;2022-12-07T06:39:00;3.60;99.90
33837;DHT22;20140;49.356;8.812;2022-12-07T06:41:25;3.60;99.90
33837;DHT22;20140;49.356;8.812;2022-12-07T06:43:51;3.60;99.90
33837;DHT22;20140;49.356;8.812;2022-12-07T06:46:17;3.50;99.90
33837;DHT22;20140;49.356;8.812;2022-12-07T06:48:43;3.50;99.90
33837;DHT22;20140;49.356;8.812;2022-12-07T06:51:09;3.50;99.90
33837;DHT22;20140;49.356;8.812;2022-12-07T06:53:36;3.50;99.90
33837;DHT22;20140;49.356;8.812;2022-12-07T06:56:02;3.50;99.90
33837;DHT22;20140;49.356;8.812;2022-12-07T06:58:28;3.50;99.90
33837;DHT22;20140;49.356;8.812;2022-12-07T07:00:54;3.50;99.90
33837;DHT22;20140;49.356;8.812;2022-12-07T07:03:19;3.50;99.90
33837;DHT22;20140;49.356;8.812;2022-12-07T07:05:45;3.50;99.90
33837;DHT22;20140;49.356;8.812;2022-12-07T07:08:11;3.50;99.90
33837;DHT22;20140;49.356;8.812;2022-12-07T07:10:37;3.50;99.90
33837;DHT22;20140;49.356;8.812;2022-12-07T07:13:03;3.50;99.90
33837;DHT22;20140;49.356;8.812;2022-12-07T07:15:29;3.50;99.90
33837;DHT22;20140;49.356;8.812;2022-12-07T07:17:55;3.50;99.90
33837;DHT22;20140;49.356;8.812;2022-12-07T07:20:21;3.40;99.90
33837;DHT22;20140;49.356;8.812;2022-12-07T07:22:47;3.60;99.90
33837;DHT22;20140;49.356;8.812;2022-12-07T07:25:13;3.60;99.90
33837;DHT22;20140;49.356;8.812;2022-12-07T07:27:38;3.60;99.90
33837;DHT22;20140;49.356;8.812;2022-12-07T07:30:05;3.60;99.90
33837;DHT22;20140;49.356;8.812;2022-12-07T07:32:31;3.60;99.90
33837;DHT22;20140;49.356;8.812;2022-12-07T07:34:57;3.60;99.90
33837;DHT22;20140;49.356;8.812;2022-12-07T07:37:23;3.60;99.90
33837;DHT22;20140;49.356;8.812;2022-12-07T07:39:48;3.60;99.90
33837;DHT22;20140;49.356;8.812;2022-12-07T07:42:14;3.70;99.90
33837;DHT22;20140;49.356;8.812;2022-12-07T07:44:40;3.70;99.90
33837;DHT22;20140;49.356;8.812;2022-12-07T07:47:05;3.70;99.90
33837;DHT22;20140;49.356;8.812;2022-12-07T07:49:31;3.60;99.90
33837;DHT22;20140;49.356;8.812;2022-12-07T07:51:56;3.70;99.90
33837;DHT22;20140;49.356;8.812;2022-12-07T07:54:22;3.70;99.90
33837;DHT22;20140;49.356;8.812;2022-12-07T07:56:47;3.70;99.90
33837;DHT22;20140;49.356;8.812;2022-12-07T07:59:13;3.70;99.90
33837;DHT22;20140;49.356;8.812;2022-12-07T08:01:39;3.70;99.90
33837;DHT22;20140;49.356;8.812;2022-12-07T08:04:05;3.80;99.90
33837;DHT22;20140;49.356;8.812;2022-12-07T08:06:30;3.80;99.90
33837;DHT22;20140;49.356;8.812;2022-12-07T08:08:56;3.80;99.90
33837;DHT22;20140;49.356;8.812;2022-12-07T08:11:23;3.90;99.90
33837;DHT22;20140;49.356;8.812;2022-12-07T08:13:49;3.80;99.90
33837;DHT22;20140;49.356;8.812;2022-12-07T08:16:14;3.80;99.90
33837;DHT22;20140;49.356;8.812;2022-12-07T08:18:43;3.80;99.90
33837;DHT22;20140;49.356;8.812;2022-12-07T08:21:12;3.90;99.90
33837;DHT22;20140;49.356;8.812;2022-12-07T08:23:37;3.90;99.90
33837;DHT22;20140;49.356;8.812;2022-12-07T08:26:05;3.90;99.90
33837;DHT22;20140;49.356;8.812;2022-12-07T08:28:31;4.00;99.90
33837;DHT22;20140;49.356;8.812;2022-12-07T08:31:05;4.10;99.90
33837;DHT22;20140;49.356;8.812;2022-12-07T08:33:31;4.10;99.90
33837;DHT22;20140;49.356;8.812;2022-12-07T08:36:02;4.00;99.90
33837;DHT22;20140;49.356;8.812;2022-12-07T08:38:28;4.10;99.90
33837;DHT22;20140;49.356;8.812;2022-12-07T08:40:57;4.10;99.90
33837;DHT22;20140;49.356;8.812;2022-12-07T08:43:23;4.00;99.90
33837;DHT22;20140;49.356;8.812;2022-12-07T08:45:54;4.10;99.90
33837;DHT22;20140;49.356;8.812;2022-12-07T08:48:25;4.10;99.90
33837;DHT22;20140;49.356;8.812;2022-12-07T08:50:51;4.00;99.90
33837;DHT22;20140;49.356;8.812;2022-12-07T08:53:17;4.00;99.90
33837;DHT22;20140;49.356;8.812;2022-12-07T08:55:44;4.00;99.90
33837;DHT22;20140;49.356;8.812;2022-12-07T08:58:10;4.00;99.90
33837;DHT22;20140;49.356;8.812;2022-12-07T09:00:36;4.00;99.90
33837;DHT22;20140;49.356;8.812;2022-12-07T09:03:01;4.00;99.90
33837;DHT22;20140;49.356;8.812;2022-12-07T09:05:27;4.00;99.90
33837;DHT22;20140;49.356;8.812;2022-12-07T09:07:55;4.00;99.90
33837;DHT22;20140;49.356;8.812;2022-12-07T09:10:22;4.00;99.90
33837;DHT22;20140;49.356;8.812;2022-12-07T09:12:48;4.10;99.90
33837;DHT22;20140;49.356;8.812;2022-12-07T09:15:14;4.10;99.90
33837;DHT22;20140;49.356;8.812;2022-12-07T09:17:40;4.10;99.90
33837;DHT22;20140;49.356;8.812;2022-12-07T09:20:06;4.10;99.90
33837;DHT22;20140;49.356;8.812;2022-12-07T09:22:32;4.00;99.90
33837;DHT22;20140;49.356;8.812;2022-12-07T09:24:58;4.00;99.90
33837;DHT22;20140;49.356;8.812;2022-12-07T09:27:24;4.00;99.90
33837;DHT22;20140;49.356;8.812;2022-12-07T09:29:50;4.00;99.90
33837;DHT22;20140;49.356;8.812;2022-12-07T09:32:16;4.00;99.90
33837;DHT22;20140;49.356;8.812;2022-12-07T09:34:41;4.00;99.90
33837;DHT22;20140;49.356;8.812;2022-12-07T09:37:07;4.00;99.90
33837;DHT22;20140;49.356;8.812;2022-12-07T09:39:33;4.00;99.90
33837;DHT22;20140;49.356;8.812;2022-12-07T09:41:59;4.00;99.90
33837;DHT22;20140;49.356;8.812;2022-12-07T09:44:28;4.00;99.90
33837;DHT22;20140;49.356;8.812;2022-12-07T09:46:54;4.00;99.90
33837;DHT22;20140;49.356;8.812;2022-12-07T09:49:23;4.00;99.90
33837;DHT22;20140;49.356;8.812;2022-12-07T09:54:44;4.10;99.90
33837;DHT22;20140;49.356;8.812;2022-12-07T09:57:11;4.10;99.90
33837;DHT22;20140;49.356;8.812;2022-12-07T09:59:38;4.20;99.90
33837;DHT22;20140;49.356;8.812;2022-12-07T10:02:36;4.30;99.90
33837;DHT22;20140;49.356;8.812;2022-12-07T10:05:10;4.30;99.90
33837;DHT22;20140;49.356;8.812;2022-12-07T10:07:37;4.30;99.90
33837;DHT22;20140;49.356;8.812;2022-12-07T10:10:04;4.40;99.90
33837;DHT22;20140;49.356;8.812;2022-12-07T10:12:52;4.50;99.90
33837;DHT22;20140;49.356;8.812;2022-12-07T10:15:18;4.50;99.90
33837;DHT22;20140;49.356;8.812;2022-12-07T10:17:49;4.60;99.90
33837;DHT22;20140;49.356;8.812;2022-12-07T10:20:24;4.60;99.90
33837;DHT22;20140;49.356;8.812;2022-12-07T10:25:29;4.50;99.90
33837;DHT22;20140;49.356;8.812;2022-12-07T10:30:27;4.50;99.90
33837;DHT22;20140;49.356;8.812;2022-12-07T10:32:52;4.50;99.90
33837;DHT22;20140;49.356;8.812;2022-12-07T10:35:26;4.50;99.90
33837;DHT22;20140;49.356;8.812;2022-12-07T10:37:53;4.50;99.90
33837;DHT22;20140;49.356;8.812;2022-12-07T10:40:28;4.40;99.90
33837;DHT22;20140;49.356;8.812;2022-12-07T10:43:05;4.50;99.90
33837;DHT22;20140;49.356;8.812;2022-12-07T10:45:32;4.50;99.90
33837;DHT22;20140;49.356;8.812;2022-12-07T10:50:58;4.50;99.90
33837;DHT22;20140;49.356;8.812;2022-12-07T10:53:52;4.50;99.90
33837;DHT22;20140;49.356;8.812;2022-12-07T11:01:42;4.60;99.90
33837;DHT22;20140;49.356;8.812;2022-12-07T11:04:36;4.60;99.90
33837;DHT22;20140;49.356;8.812;2022-12-07T11:07:13;4.80;99.90
33837;DHT22;20140;49.356;8.812;2022-12-07T11:10:00;4.70;99.90
33837;DHT22;20140;49.356;8.812;2022-12-07T11:12:40;4.80;99.90
33837;DHT22;20140;49.356;8.812;2022-12-07T11:18:48;4.70;99.90
33837;DHT22;20140;49.356;8.812;2022-12-07T11:21:20;4.70;99.90
33837;DHT22;20140;49.356;8.812;2022-12-07T11:23:56;4.80;99.90
33837;DHT22;20140;49.356;8.812;2022-12-07T11:34:53;4.80;99.90
33837;DHT22;20140;49.356;8.812;2022-12-07T11:37:31;4.80;99.90
33837;DHT22;20140;49.356;8.812;2022-12-07T11:43:02;4.80;99.90
33837;DHT22;20140;49.356;8.812;2022-12-07T11:45:32;4.90;99.90
33837;DHT22;20140;49.356;8.812;2022-12-07T11:48:02;5.00;99.90
33837;DHT22;20140;49.356;8.812;2022-12-07T11:50:50;5.00;99.90
33837;DHT22;20140;49.356;8.812;2022-12-07T12:04:16;5.10;99.90
33837;DHT22;20140;49.356;8.812;2022-12-07T12:06:44;5.10;99.90
33837;DHT22;20140;49.356;8.812;2022-12-07T12:09:31;5.00;99.90
33837;DHT22;20140;49.356;8.812;2022-12-07T12:15:06;5.00;99.90
33837;DHT22;20140;49.356;8.812;2022-12-07T12:20:28;5.00;99.90
33837;DHT22;20140;49.356;8.812;2022-12-07T12:23:14;5.10;99.90
33837;DHT22;20140;49.356;8.812;2022-12-07T12:25:44;5.10;99.90
33837;DHT22;20140;49.356;8.812;2022-12-07T12:33:54;5.10;99.90
33837;DHT22;20140;49.356;8.812;2022-12-07T12:51:56;5.30;99.90
33837;DHT22;20140;49.356;8.812;2022-12-07T12:54:30;5.30;99.90
33837;DHT22;20140;49.356;8.812;2022-12-07T12:57:07;5.30;99.90
33837;DHT22;20140;49.356;8.812;2022-12-07T12:59:39;5.30;99.90
33837;DHT22;20140;49.356;8.812;2022-12-07T13:10:39;5.20;99.90
33837;DHT22;20140;49.356;8.812;2022-12-07T13:18:23;5.20;99.90
33837;DHT22;20140;49.356;8.812;2022-12-07T13:20:51;5.10;99.90
33837;DHT22;20140;49.356;8.812;2022-12-07T13:23:38;5.10;99.90
33837;DHT22;20140;49.356;8.812;2022-12-07T13:31:39;5.10;99.90
33837;DHT22;20140;49.356;8.812;2022-12-07T13:34:30;5.10;99.90
33837;DHT22;20140;49.356;8.812;2022-12-07T13:36:56;5.20;99.90
33837;DHT22;20140;49.356;8.812;2022-12-07T13:39:24;5.10;99.90
33837;DHT22;20140;49.356;8.812;2022-12-07T13:41:52;5.00;99.90
33837;DHT22;20140;49.356;8.812;2022-12-07T13:44:19;5.00;99.90
33837;DHT22;20140;49.356;8.812;2022-12-07T13:49:30;5.10;99.90
33837;DHT22;20140;49.356;8.812;2022-12-07T13:55:11;5.10;99.90
33837;DHT22;20140;49.356;8.812;2022-12-07T13:57:38;5.10;99.90
33837;DHT22;20140;49.356;8.812;2022-12-07T14:00:13;5.10;99.90
33837;DHT22;20140;49.356;8.812;2022-12-07T14:05:25;5.10;99.90
33837;DHT22;20140;49.356;8.812;2022-12-07T14:10:39;5.20;99.90
33837;DHT22;20140;49.356;8.812;2022-12-07T14:15:53;5.10;99.90
33837;DHT22;20140;49.356;8.812;2022-12-07T14:23:36;5.20;99.90
33837;DHT22;20140;49.356;8.812;2022-12-07T14:26:08;5.20;99.90
33837;DHT22;20140;49.356;8.812;2022-12-07T14:28:37;5.20;99.90
33837;DHT22;20140;49.356;8.812;2022-12-07T14:31:03;5.20;99.90
33837;DHT22;20140;49.356;8.812;2022-12-07T14:33:29;5.20;99.90
33837;DHT22;20140;49.356;8.812;2022-12-07T14:35:55;5.20;99.90
33837;DHT22;20140;49.356;8.812;2022-12-07T14:38:23;5.20;99.90
33837;DHT22;20140;49.356;8.812;2022-12-07T14:40:53;5.10;99.90
33837;DHT22;20140;49.356;8.812;2022-12-07T14:43:20;5.10;99.90
33837;DHT22;20140;49.356;8.812;2022-12-07T14:45:46;5.20;99.90
33837;DHT22;20140;49.356;8.812;2022-12-07T14:48:13;5.20;99.90
33837;DHT22;20140;49.356;8.812;2022-12-07T14:50:43;5.20;99.90
33837;DHT22;20140;49.356;8.812;2022-12-07T14:53:17;5.30;99.90
33837;DHT22;20140;49.356;8.812;2022-12-07T14:55:44;5.20;99.90
33837;DHT22;20140;49.356;8.812;2022-12-07T14:58:14;5.30;99.90
33837;DHT22;20140;49.356;8.812;2022-12-07T15:00:40;5.20;99.90
33837;DHT22;20140;49.356;8.812;2022-12-07T15:03:05;5.20;99.90
33837;DHT22;20140;49.356;8.812;2022-12-07T15:05:31;5.20;99.90
33837;DHT22;20140;49.356;8.812;2022-12-07T15:07:56;5.10;99.90
33837;DHT22;20140;49.356;8.812;2022-12-07T15:10:25;5.20;99.90
33837;DHT22;20140;49.356;8.812;2022-12-07T15:12:56;5.10;99.90
33837;DHT22;20140;49.356;8.812;2022-12-07T15:15:41;5.10;99.90
33837;DHT22;20140;49.356;8.812;2022-12-07T15:18:07;5.10;99.90
33837;DHT22;20140;49.356;8.812;2022-12-07T15:20:33;5.10;99.90
33837;DHT22;20140;49.356;8.812;2022-12-07T15:22:58;5.20;99.90
33837;DHT22;20140;49.356;8.812;2022-12-07T15:25:24;5.20;99.90
33837;DHT22;20140;49.356;8.812;2022-12-07T15:27:49;5.20;99.90
33837;DHT22;20140;49.356;8.812;2022-12-07T15:30:15;5.10;99.90
33837;DHT22;20140;49.356;8.812;2022-12-07T15:32:41;5.10;99.90
33837;DHT22;20140;49.356;8.812;2022-12-07T15:35:06;5.00;99.90
33837;DHT22;20140;49.356;8.812;2022-12-07T15:37:32;5.10;99.90
33837;DHT22;20140;49.356;8.812;2022-12-07T15:39:58;5.00;99.90
33837;DHT22;20140;49.356;8.812;2022-12-07T15:42:23;5.00;99.90
33837;DHT22;20140;49.356;8.812;2022-12-07T15:44:49;4.90;99.90
33837;DHT22;20140;49.356;8.812;2022-12-07T15:47:42;4.90;99.90
33837;DHT22;20140;49.356;8.812;2022-12-07T15:50:11;4.90;99.90
33837;DHT22;20140;49.356;8.812;2022-12-07T15:52:37;4.90;99.90
33837;DHT22;20140;49.356;8.812;2022-12-07T15:55:03;4.80;99.90
33837;DHT22;20140;49.356;8.812;2022-12-07T15:57:30;4.90;99.90
33837;DHT22;20140;49.356;8.812;2022-12-07T15:59:55;4.80;99.90
33837;DHT22;20140;49.356;8.812;2022-12-07T16:02:21;4.80;99.90
33837;DHT22;20140;49.356;8.812;2022-12-07T16:04:47;4.80;99.90
33837;DHT22;20140;49.356;8.812;2022-12-07T16:07:13;4.70;99.90
33837;DHT22;20140;49.356;8.812;2022-12-07T16:09:41;4.80;99.90
33837;DHT22;20140;49.356;8.812;2022-12-07T16:12:07;4.80;99.90
33837;DHT22;20140;49.356;8.812;2022-12-07T16:14:33;4.80;99.90
33837;DHT22;20140;49.356;8.812;2022-12-07T16:16:58;4.70;99.90
33837;DHT22;20140;49.356;8.812;2022-12-07T16:19:24;4.70;99.90
33837;DHT22;20140;49.356;8.812;2022-12-07T16:21:50;4.70;99.90
33837;DHT22;20140;49.356;8.812;2022-12-07T16:24:15;4.70;99.90
33837;DHT22;20140;49.356;8.812;2022-12-07T16:26:42;4.70;99.90
33837;DHT22;20140;49.356;8.812;2022-12-07T16:29:11;4.70;99.90
33837;DHT22;20140;49.356;8.812;2022-12-07T16:31:37;4.70;99.90
33837;DHT22;20140;49.356;8.812;2022-12-07T16:34:02;4.70;99.90
33837;DHT22;20140;49.356;8.812;2022-12-07T16:36:28;4.70;99.90
33837;DHT22;20140;49.356;8.812;2022-12-07T16:38:53;4.70;99.90
33837;DHT22;20140;49.356;8.812;2022-12-07T16:41:19;4.70;99.90
33837;DHT22;20140;49.356;8.812;2022-12-07T16:43:45;4.60;99.90
33837;DHT22;20140;49.356;8.812;2022-12-07T16:46:10;4.60;99.90
33837;DHT22;20140;49.356;8.812;2022-12-07T16:48:39;4.60;99.90
33837;DHT22;20140;49.356;8.812;2022-12-07T16:51:07;4.60;99.90
33837;DHT22;20140;49.356;8.812;2022-12-07T16:53:37;4.50;99.90
33837;DHT22;20140;49.356;8.812;2022-12-07T16:56:04;4.50;99.90
33837;DHT22;20140;49.356;8.812;2022-12-07T16:58:30;4.60;99.90
33837;DHT22;20140;49.356;8.812;2022-12-07T17:00:57;4.50;99.90
33837;DHT22;20140;49.356;8.812;2022-12-07T17:03:23;4.50;99.90
33837;DHT22;20140;49.356;8.812;2022-12-07T17:05:48;4.50;99.90
33837;DHT22;20140;49.356;8.812;2022-12-07T17:08:14;4.40;99.90
33837;DHT22;20140;49.356;8.812;2022-12-07T17:10:42;4.40;99.90
33837;DHT22;20140;49.356;8.812;2022-12-07T17:13:08;4.40;99.90
33837;DHT22;20140;49.356;8.812;2022-12-07T17:16:01;4.40;99.90
33837;DHT22;20140;49.356;8.812;2022-12-07T17:18:29;4.50;99.90
33837;DHT22;20140;49.356;8.812;2022-12-07T17:20:55;4.40;99.90
33837;DHT22;20140;49.356;8.812;2022-12-07T17:23:20;4.40;99.90
33837;DHT22;20140;49.356;8.812;2022-12-07T17:25:47;4.40;99.90
33837;DHT22;20140;49.356;8.812;2022-12-07T17:28:12;4.40;99.90
33837;DHT22;20140;49.356;8.812;2022-12-07T17:30:39;4.40;99.90
33837;DHT22;20140;49.356;8.812;2022-12-07T17:33:04;4.40;99.90
33837;DHT22;20140;49.356;8.812;2022-12-07T17:35:30;4.30;99.90
33837;DHT22;20140;49.356;8.812;2022-12-07T17:37:55;4.30;99.90
33837;DHT22;20140;49.356;8.812;2022-12-07T17:40:21;4.30;99.90
33837;DHT22;20140;49.356;8.812;2022-12-07T17:42:47;4.30;99.90
33837;DHT22;20140;49.356;8.812;2022-12-07T17:45:15;4.30;99.90
33837;DHT22;20140;49.356;8.812;2022-12-07T17:47:41;4.30;99.90
33837;DHT22;20140;49.356;8.812;2022-12-07T17:50:08;4.30;99.90
33837;DHT22;20140;49.356;8.812;2022-12-07T17:52:33;4.20;99.90
33837;DHT22;20140;49.356;8.812;2022-12-07T17:55:20;4.20;99.90
33837;DHT22;20140;49.356;8.812;2022-12-07T17:57:46;4.20;99.90
33837;DHT22;20140;49.356;8.812;2022-12-07T18:00:12;4.20;99.90
33837;DHT22;20140;49.356;8.812;2022-12-07T18:02:38;4.20;99.90